sensor_id;sensor_type;location;lat;lon;timestamp;P1;durP1;ratioP1;P2;durP2;ratioP2
8159;SDS011;27404;52.398;9.646;2023-01-06T00:01:03;22.73;;;7.83;;
8159;SDS011;27404;52.398;9.646;2023-01-06T00:03:32;25.40;;;6.83;;
8159;SDS011;27404;52.398;9.646;2023-01-06T00:05:58;13.90;;;6.53;;
8159;SDS011;27404;52.398;9.646;2023-01-06T00:08:25;18.77;;;6.13;;
8159;SDS011;27404;52.398;9.646;2023-01-06T00:10:50;26.20;;;7.90;;
8159;SDS011;27404;52.398;9.646;2023-01-06T00:13:16;14.83;;;6.07;;
8159;SDS011;27404;52.398;9.646;2023-01-06T00:15:41;20.03;;;6.47;;
8159;SDS011;27404;52.398;9.646;2023-01-06T00:18:07;18.13;;;6.53;;
8159;SDS011;27404;52.398;9.646;2023-01-06T00:20:32;19.43;;;6.90;;
8159;SDS011;27404;52.398;9.646;2023-01-06T00:22:58;12.97;;;6.23;;
8159;SDS011;27404;52.398;9.646;2023-01-06T00:25:24;22.67;;;6.07;;
8159;SDS011;27404;52.398;9.646;2023-01-06T00:27:49;15.70;;;5.90;;
8159;SDS011;27404;52.398;9.646;2023-01-06T00:30:14;13.00;;;5.67;;
8159;SDS011;27404;52.398;9.646;2023-01-06T00:32:40;12.97;;;5.73;;
8159;SDS011;27404;52.398;9.646;2023-01-06T00:35:05;16.40;;;6.07;;
8159;SDS011;27404;52.398;9.646;2023-01-06T00:37:31;19.00;;;6.13;;
8159;SDS011;27404;52.398;9.646;2023-01-06T00:39:56;19.03;;;6.60;;
8159;SDS011;27404;52.398;9.646;2023-01-06T00:42:22;14.97;;;5.50;;
8159;SDS011;27404;52.398;9.646;2023-01-06T00:44:49;14.90;;;6.27;;
8159;SDS011;27404;52.398;9.646;2023-01-06T00:47:14;14.70;;;6.20;;
8159;SDS011;27404;52.398;9.646;2023-01-06T00:49:40;15.03;;;6.33;;
8159;SDS011;27404;52.398;9.646;2023-01-06T00:52:05;16.03;;;6.17;;
8159;SDS011;27404;52.398;9.646;2023-01-06T00:54:31;14.63;;;6.20;;
8159;SDS011;27404;52.398;9.646;2023-01-06T00:56:56;14.77;;;6.10;;
8159;SDS011;27404;52.398;9.646;2023-01-06T00:59:23;13.17;;;6.37;;
8159;SDS011;27404;52.398;9.646;2023-01-06T01:01:51;19.23;;;6.27;;
8159;SDS011;27404;52.398;9.646;2023-01-06T01:04:18;16.20;;;6.47;;
8159;SDS011;27404;52.398;9.646;2023-01-06T01:06:44;11.70;;;6.07;;
8159;SDS011;27404;52.398;9.646;2023-01-06T01:09:17;10.77;;;5.00;;
8159;SDS011;27404;52.398;9.646;2023-01-06T01:11:46;14.37;;;5.77;;
8159;SDS011;27404;52.398;9.646;2023-01-06T01:14:29;10.37;;;5.00;;
8159;SDS011;27404;52.398;9.646;2023-01-06T01:16:55;10.93;;;5.20;;
8159;SDS011;27404;52.398;9.646;2023-01-06T01:19:20;13.17;;;5.87;;
8159;SDS011;27404;52.398;9.646;2023-01-06T01:21:47;14.67;;;4.50;;
8159;SDS011;27404;52.398;9.646;2023-01-06T01:24:12;6.53;;;3.90;;
8159;SDS011;27404;52.398;9.646;2023-01-06T01:26:38;9.67;;;4.50;;
8159;SDS011;27404;52.398;9.646;2023-01-06T01:29:04;7.30;;;4.43;;
8159;SDS011;27404;52.398;9.646;2023-01-06T01:31:30;6.77;;;4.10;;
8159;SDS011;27404;52.398;9.646;2023-01-06T01:33:55;5.50;;;4.13;;
8159;SDS011;27404;52.398;9.646;2023-01-06T01:36:21;8.33;;;4.83;;
8159;SDS011;27404;52.398;9.646;2023-01-06T01:38:46;8.13;;;4.13;;
8159;SDS011;27404;52.398;9.646;2023-01-06T01:41:12;8.33;;;4.50;;
8159;SDS011;27404;52.398;9.646;2023-01-06T01:43:53;9.70;;;4.17;;
8159;SDS011;27404;52.398;9.646;2023-01-06T01:46:25;6.50;;;4.40;;
8159;SDS011;27404;52.398;9.646;2023-01-06T01:48:54;9.57;;;5.20;;
8159;SDS011;27404;52.398;9.646;2023-01-06T01:51:26;8.97;;;5.17;;
8159;SDS011;27404;52.398;9.646;2023-01-06T01:53:55;9.03;;;4.90;;
8159;SDS011;27404;52.398;9.646;2023-01-06T01:56:25;7.23;;;4.77;;
8159;SDS011;27404;52.398;9.646;2023-01-06T02:01:23;8.07;;;4.80;;
8159;SDS011;27404;52.398;9.646;2023-01-06T02:03:48;8.33;;;4.83;;
8159;SDS011;27404;52.398;9.646;2023-01-06T02:06:15;8.13;;;5.03;;
8159;SDS011;27404;52.398;9.646;2023-01-06T02:11:24;7.83;;;5.17;;
8159;SDS011;27404;52.398;9.646;2023-01-06T02:13:56;9.87;;;5.03;;
8159;SDS011;27404;52.398;9.646;2023-01-06T02:16:33;8.43;;;4.77;;
8159;SDS011;27404;52.398;9.646;2023-01-06T02:19:30;8.07;;;4.67;;
8159;SDS011;27404;52.398;9.646;2023-01-06T02:30:57;7.97;;;4.90;;
8159;SDS011;27404;52.398;9.646;2023-01-06T02:33:40;8.27;;;4.83;;
8159;SDS011;27404;52.398;9.646;2023-01-06T02:39:02;6.13;;;4.20;;
8159;SDS011;27404;52.398;9.646;2023-01-06T02:41:42;7.30;;;4.57;;
8159;SDS011;27404;52.398;9.646;2023-01-06T02:47:33;7.53;;;3.77;;
8159;SDS011;27404;52.398;9.646;2023-01-06T02:50:40;7.33;;;3.90;;
8159;SDS011;27404;52.398;9.646;2023-01-06T02:55:56;10.67;;;4.00;;
8159;SDS011;27404;52.398;9.646;2023-01-06T02:59:08;7.50;;;3.97;;
8159;SDS011;27404;52.398;9.646;2023-01-06T03:01:41;7.13;;;4.00;;
8159;SDS011;27404;52.398;9.646;2023-01-06T03:04:15;6.87;;;3.80;;
8159;SDS011;27404;52.398;9.646;2023-01-06T03:06:46;7.30;;;4.53;;
8159;SDS011;27404;52.398;9.646;2023-01-06T03:09:14;6.90;;;4.00;;
8159;SDS011;27404;52.398;9.646;2023-01-06T03:11:42;8.80;;;4.10;;
8159;SDS011;27404;52.398;9.646;2023-01-06T03:14:12;7.60;;;4.13;;
8159;SDS011;27404;52.398;9.646;2023-01-06T03:16:43;8.07;;;4.47;;
8159;SDS011;27404;52.398;9.646;2023-01-06T03:19:08;8.03;;;4.50;;
8159;SDS011;27404;52.398;9.646;2023-01-06T03:21:35;9.17;;;4.13;;
8159;SDS011;27404;52.398;9.646;2023-01-06T03:24:05;8.43;;;4.10;;
8159;SDS011;27404;52.398;9.646;2023-01-06T03:26:32;7.30;;;4.40;;
8159;SDS011;27404;52.398;9.646;2023-01-06T03:28:59;10.87;;;4.60;;
8159;SDS011;27404;52.398;9.646;2023-01-06T03:31:31;7.20;;;4.27;;
8159;SDS011;27404;52.398;9.646;2023-01-06T03:37:00;8.83;;;4.50;;
8159;SDS011;27404;52.398;9.646;2023-01-06T03:39:51;9.13;;;4.57;;
8159;SDS011;27404;52.398;9.646;2023-01-06T03:45:45;9.47;;;4.43;;
8159;SDS011;27404;52.398;9.646;2023-01-06T03:50:49;7.83;;;4.07;;
8159;SDS011;27404;52.398;9.646;2023-01-06T03:53:24;7.33;;;4.60;;
8159;SDS011;27404;52.398;9.646;2023-01-06T03:56:00;7.00;;;4.40;;
8159;SDS011;27404;52.398;9.646;2023-01-06T03:58:34;8.70;;;4.00;;
8159;SDS011;27404;52.398;9.646;2023-01-06T04:01:02;11.47;;;4.57;;
8159;SDS011;27404;52.398;9.646;2023-01-06T04:03:29;6.27;;;3.67;;
8159;SDS011;27404;52.398;9.646;2023-01-06T04:05:55;5.80;;;3.63;;
8159;SDS011;27404;52.398;9.646;2023-01-06T04:08:20;8.67;;;3.97;;
8159;SDS011;27404;52.398;9.646;2023-01-06T04:10:46;7.67;;;4.13;;
8159;SDS011;27404;52.398;9.646;2023-01-06T04:13:11;8.47;;;4.27;;
8159;SDS011;27404;52.398;9.646;2023-01-06T04:15:37;7.80;;;4.10;;
8159;SDS011;27404;52.398;9.646;2023-01-06T04:18:02;9.93;;;3.80;;
8159;SDS011;27404;52.398;9.646;2023-01-06T04:20:28;8.73;;;3.90;;
8159;SDS011;27404;52.398;9.646;2023-01-06T04:22:55;7.70;;;3.63;;
8159;SDS011;27404;52.398;9.646;2023-01-06T04:25:21;8.13;;;3.90;;
8159;SDS011;27404;52.398;9.646;2023-01-06T04:27:48;6.73;;;3.70;;
8159;SDS011;27404;52.398;9.646;2023-01-06T04:30:14;7.47;;;3.63;;
8159;SDS011;27404;52.398;9.646;2023-01-06T04:32:39;5.63;;;4.10;;
8159;SDS011;27404;52.398;9.646;2023-01-06T04:35:05;6.30;;;3.87;;
8159;SDS011;27404;52.398;9.646;2023-01-06T04:37:32;6.93;;;3.90;;
8159;SDS011;27404;52.398;9.646;2023-01-06T04:39:58;7.37;;;4.93;;
8159;SDS011;27404;52.398;9.646;2023-01-06T04:42:23;9.43;;;4.13;;
8159;SDS011;27404;52.398;9.646;2023-01-06T04:44:49;5.60;;;3.90;;
8159;SDS011;27404;52.398;9.646;2023-01-06T04:47:14;6.67;;;3.80;;
8159;SDS011;27404;52.398;9.646;2023-01-06T04:49:40;6.57;;;3.43;;
8159;SDS011;27404;52.398;9.646;2023-01-06T04:52:05;6.83;;;3.63;;
8159;SDS011;27404;52.398;9.646;2023-01-06T04:54:32;10.10;;;3.73;;
8159;SDS011;27404;52.398;9.646;2023-01-06T04:56:58;7.70;;;3.37;;
8159;SDS011;27404;52.398;9.646;2023-01-06T04:59:23;3.90;;;3.20;;
8159;SDS011;27404;52.398;9.646;2023-01-06T05:01:49;6.37;;;3.43;;
8159;SDS011;27404;52.398;9.646;2023-01-06T05:04:14;6.20;;;3.40;;
8159;SDS011;27404;52.398;9.646;2023-01-06T05:06:40;5.10;;;3.07;;
8159;SDS011;27404;52.398;9.646;2023-01-06T05:09:05;5.60;;;2.93;;
8159;SDS011;27404;52.398;9.646;2023-01-06T05:11:31;5.77;;;3.10;;
8159;SDS011;27404;52.398;9.646;2023-01-06T05:13:58;5.47;;;3.10;;
8159;SDS011;27404;52.398;9.646;2023-01-06T05:16:24;4.93;;;3.03;;
8159;SDS011;27404;52.398;9.646;2023-01-06T05:18:52;5.40;;;2.57;;
8159;SDS011;27404;52.398;9.646;2023-01-06T05:21:18;6.63;;;2.80;;
8159;SDS011;27404;52.398;9.646;2023-01-06T05:23:44;3.70;;;2.30;;
8159;SDS011;27404;52.398;9.646;2023-01-06T05:26:18;3.77;;;2.10;;
8159;SDS011;27404;52.398;9.646;2023-01-06T05:28:45;4.93;;;2.10;;
8159;SDS011;27404;52.398;9.646;2023-01-06T05:31:11;7.10;;;2.57;;
8159;SDS011;27404;52.398;9.646;2023-01-06T05:33:37;3.50;;;1.70;;
8159;SDS011;27404;52.398;9.646;2023-01-06T05:36:04;3.43;;;1.90;;
8159;SDS011;27404;52.398;9.646;2023-01-06T05:38:31;3.90;;;2.03;;
8159;SDS011;27404;52.398;9.646;2023-01-06T05:40:57;4.33;;;1.90;;
8159;SDS011;27404;52.398;9.646;2023-01-06T05:43:23;3.20;;;1.70;;
8159;SDS011;27404;52.398;9.646;2023-01-06T05:45:50;3.90;;;1.70;;
8159;SDS011;27404;52.398;9.646;2023-01-06T05:48:16;4.50;;;1.70;;
8159;SDS011;27404;52.398;9.646;2023-01-06T05:50:42;3.20;;;1.37;;
8159;SDS011;27404;52.398;9.646;2023-01-06T05:53:08;3.63;;;1.40;;
8159;SDS011;27404;52.398;9.646;2023-01-06T05:55:33;2.07;;;1.37;;
8159;SDS011;27404;52.398;9.646;2023-01-06T05:57:59;2.80;;;1.40;;
8159;SDS011;27404;52.398;9.646;2023-01-06T06:00:24;3.57;;;1.27;;
8159;SDS011;27404;52.398;9.646;2023-01-06T06:02:50;2.03;;;1.10;;
8159;SDS011;27404;52.398;9.646;2023-01-06T06:05:15;4.73;;;1.30;;
8159;SDS011;27404;52.398;9.646;2023-01-06T06:07:41;2.30;;;0.90;;
8159;SDS011;27404;52.398;9.646;2023-01-06T06:10:06;4.17;;;1.10;;
8159;SDS011;27404;52.398;9.646;2023-01-06T06:12:33;2.27;;;0.93;;
8159;SDS011;27404;52.398;9.646;2023-01-06T06:14:59;3.20;;;0.87;;
8159;SDS011;27404;52.398;9.646;2023-01-06T06:17:25;1.80;;;0.83;;
8159;SDS011;27404;52.398;9.646;2023-01-06T06:19:50;1.93;;;1.10;;
8159;SDS011;27404;52.398;9.646;2023-01-06T06:22:16;3.80;;;0.93;;
8159;SDS011;27404;52.398;9.646;2023-01-06T06:24:41;2.37;;;0.93;;
8159;SDS011;27404;52.398;9.646;2023-01-06T06:27:07;4.33;;;1.03;;
8159;SDS011;27404;52.398;9.646;2023-01-06T06:29:32;2.50;;;0.80;;
8159;SDS011;27404;52.398;9.646;2023-01-06T06:31:58;2.13;;;0.70;;
8159;SDS011;27404;52.398;9.646;2023-01-06T06:34:23;2.53;;;0.70;;
8159;SDS011;27404;52.398;9.646;2023-01-06T06:36:49;1.20;;;0.60;;
8159;SDS011;27404;52.398;9.646;2023-01-06T06:39:14;1.47;;;1.03;;
8159;SDS011;27404;52.398;9.646;2023-01-06T06:41:39;2.00;;;0.70;;
8159;SDS011;27404;52.398;9.646;2023-01-06T06:44:05;3.63;;;0.70;;
8159;SDS011;27404;52.398;9.646;2023-01-06T06:46:30;1.70;;;0.73;;
8159;SDS011;27404;52.398;9.646;2023-01-06T06:48:56;2.30;;;0.67;;
8159;SDS011;27404;52.398;9.646;2023-01-06T06:51:21;1.63;;;0.60;;
8159;SDS011;27404;52.398;9.646;2023-01-06T06:53:47;2.80;;;0.70;;
8159;SDS011;27404;52.398;9.646;2023-01-06T06:56:13;3.23;;;0.70;;
8159;SDS011;27404;52.398;9.646;2023-01-06T06:58:40;2.43;;;0.80;;
8159;SDS011;27404;52.398;9.646;2023-01-06T07:01:10;3.07;;;0.80;;
8159;SDS011;27404;52.398;9.646;2023-01-06T07:03:37;3.10;;;0.73;;
8159;SDS011;27404;52.398;9.646;2023-01-06T07:06:03;3.63;;;0.90;;
8159;SDS011;27404;52.398;9.646;2023-01-06T07:08:31;2.10;;;0.77;;
8159;SDS011;27404;52.398;9.646;2023-01-06T07:10:57;3.13;;;0.87;;
8159;SDS011;27404;52.398;9.646;2023-01-06T07:13:23;5.83;;;1.00;;
8159;SDS011;27404;52.398;9.646;2023-01-06T07:15:48;5.20;;;0.90;;
8159;SDS011;27404;52.398;9.646;2023-01-06T07:18:14;3.63;;;1.00;;
8159;SDS011;27404;52.398;9.646;2023-01-06T07:20:39;5.97;;;0.87;;
8159;SDS011;27404;52.398;9.646;2023-01-06T07:23:04;2.57;;;1.03;;
8159;SDS011;27404;52.398;9.646;2023-01-06T07:25:30;5.13;;;1.10;;
8159;SDS011;27404;52.398;9.646;2023-01-06T07:27:58;4.83;;;1.63;;
8159;SDS011;27404;52.398;9.646;2023-01-06T07:30:25;2.20;;;0.80;;
8159;SDS011;27404;52.398;9.646;2023-01-06T07:32:51;2.43;;;0.80;;
8159;SDS011;27404;52.398;9.646;2023-01-06T07:35:17;2.57;;;0.93;;
8159;SDS011;27404;52.398;9.646;2023-01-06T07:37:43;3.67;;;1.20;;
8159;SDS011;27404;52.398;9.646;2023-01-06T07:40:09;4.87;;;1.00;;
8159;SDS011;27404;52.398;9.646;2023-01-06T07:42:35;5.00;;;0.90;;
8159;SDS011;27404;52.398;9.646;2023-01-06T07:45:01;2.60;;;0.90;;
8159;SDS011;27404;52.398;9.646;2023-01-06T07:47:27;4.50;;;1.67;;
8159;SDS011;27404;52.398;9.646;2023-01-06T07:49:53;2.30;;;0.80;;
8159;SDS011;27404;52.398;9.646;2023-01-06T07:52:18;2.07;;;0.90;;
8159;SDS011;27404;52.398;9.646;2023-01-06T07:54:44;4.30;;;1.07;;
8159;SDS011;27404;52.398;9.646;2023-01-06T07:57:09;1.53;;;0.80;;
8159;SDS011;27404;52.398;9.646;2023-01-06T07:59:34;2.80;;;1.20;;
8159;SDS011;27404;52.398;9.646;2023-01-06T08:02:00;2.80;;;1.10;;
8159;SDS011;27404;52.398;9.646;2023-01-06T08:04:25;2.30;;;0.90;;
8159;SDS011;27404;52.398;9.646;2023-01-06T08:06:51;2.90;;;0.90;;
8159;SDS011;27404;52.398;9.646;2023-01-06T08:09:16;3.47;;;0.73;;
8159;SDS011;27404;52.398;9.646;2023-01-06T08:11:42;6.23;;;1.87;;
8159;SDS011;27404;52.398;9.646;2023-01-06T08:14:07;3.47;;;1.20;;
8159;SDS011;27404;52.398;9.646;2023-01-06T08:16:32;2.50;;;0.90;;
8159;SDS011;27404;52.398;9.646;2023-01-06T08:18:58;2.03;;;1.00;;
8159;SDS011;27404;52.398;9.646;2023-01-06T08:21:23;2.63;;;1.10;;
8159;SDS011;27404;52.398;9.646;2023-01-06T08:23:49;1.67;;;0.80;;
8159;SDS011;27404;52.398;9.646;2023-01-06T08:26:15;1.90;;;1.10;;
8159;SDS011;27404;52.398;9.646;2023-01-06T08:28:42;4.83;;;0.90;;
8159;SDS011;27404;52.398;9.646;2023-01-06T08:31:13;3.67;;;1.03;;
8159;SDS011;27404;52.398;9.646;2023-01-06T08:33:43;1.67;;;1.13;;
8159;SDS011;27404;52.398;9.646;2023-01-06T08:36:11;3.80;;;1.00;;
8159;SDS011;27404;52.398;9.646;2023-01-06T08:38:38;3.10;;;1.20;;
8159;SDS011;27404;52.398;9.646;2023-01-06T08:41:04;3.30;;;0.90;;
8159;SDS011;27404;52.398;9.646;2023-01-06T08:43:30;3.03;;;1.00;;
8159;SDS011;27404;52.398;9.646;2023-01-06T08:46:03;2.17;;;1.00;;
8159;SDS011;27404;52.398;9.646;2023-01-06T08:48:31;2.67;;;0.97;;
8159;SDS011;27404;52.398;9.646;2023-01-06T08:51:05;4.77;;;1.23;;
8159;SDS011;27404;52.398;9.646;2023-01-06T08:53:33;2.57;;;1.20;;
8159;SDS011;27404;52.398;9.646;2023-01-06T08:55:58;3.17;;;1.13;;
8159;SDS011;27404;52.398;9.646;2023-01-06T08:58:24;5.63;;;1.10;;
8159;SDS011;27404;52.398;9.646;2023-01-06T09:00:50;3.97;;;1.00;;
8159;SDS011;27404;52.398;9.646;2023-01-06T09:03:16;3.13;;;1.10;;
8159;SDS011;27404;52.398;9.646;2023-01-06T09:05:41;2.43;;;1.10;;
8159;SDS011;27404;52.398;9.646;2023-01-06T09:08:07;3.07;;;1.00;;
8159;SDS011;27404;52.398;9.646;2023-01-06T09:10:35;2.90;;;1.00;;
8159;SDS011;27404;52.398;9.646;2023-01-06T09:13:01;4.00;;;1.10;;
8159;SDS011;27404;52.398;9.646;2023-01-06T09:15:26;3.70;;;0.93;;
8159;SDS011;27404;52.398;9.646;2023-01-06T09:17:52;1.67;;;1.00;;
8159;SDS011;27404;52.398;9.646;2023-01-06T09:20:18;3.07;;;1.00;;
8159;SDS011;27404;52.398;9.646;2023-01-06T09:22:44;4.37;;;1.10;;
8159;SDS011;27404;52.398;9.646;2023-01-06T09:25:09;2.53;;;0.90;;
8159;SDS011;27404;52.398;9.646;2023-01-06T09:27:35;1.77;;;0.90;;
8159;SDS011;27404;52.398;9.646;2023-01-06T09:30:00;2.03;;;0.87;;
8159;SDS011;27404;52.398;9.646;2023-01-06T09:32:26;2.33;;;0.97;;
8159;SDS011;27404;52.398;9.646;2023-01-06T09:34:51;3.47;;;1.10;;
8159;SDS011;27404;52.398;9.646;2023-01-06T09:37:17;1.07;;;0.70;;
8159;SDS011;27404;52.398;9.646;2023-01-06T09:39:42;2.37;;;1.17;;
8159;SDS011;27404;52.398;9.646;2023-01-06T09:42:27;2.93;;;0.90;;
8159;SDS011;27404;52.398;9.646;2023-01-06T09:45:20;2.97;;;1.07;;
8159;SDS011;27404;52.398;9.646;2023-01-06T09:47:57;3.10;;;0.87;;
8159;SDS011;27404;52.398;9.646;2023-01-06T09:53:10;3.63;;;1.03;;
8159;SDS011;27404;52.398;9.646;2023-01-06T09:55:51;2.83;;;1.07;;
8159;SDS011;27404;52.398;9.646;2023-01-06T09:58:23;3.07;;;0.97;;
8159;SDS011;27404;52.398;9.646;2023-01-06T10:00:57;1.70;;;1.30;;
8159;SDS011;27404;52.398;9.646;2023-01-06T10:03:29;2.33;;;1.10;;
8159;SDS011;27404;52.398;9.646;2023-01-06T10:14:19;4.23;;;1.40;;
8159;SDS011;27404;52.398;9.646;2023-01-06T10:20:02;2.00;;;1.57;;
8159;SDS011;27404;52.398;9.646;2023-01-06T10:22:52;2.20;;;1.47;;
8159;SDS011;27404;52.398;9.646;2023-01-06T10:28:04;2.03;;;1.50;;
8159;SDS011;27404;52.398;9.646;2023-01-06T10:30:42;2.50;;;1.23;;
8159;SDS011;27404;52.398;9.646;2023-01-06T10:33:25;2.50;;;1.30;;
8159;SDS011;27404;52.398;9.646;2023-01-06T10:35:56;1.97;;;1.37;;
8159;SDS011;27404;52.398;9.646;2023-01-06T10:38:24;3.27;;;1.40;;
8159;SDS011;27404;52.398;9.646;2023-01-06T10:41:01;4.03;;;1.57;;
8159;SDS011;27404;52.398;9.646;2023-01-06T10:43:35;1.97;;;1.20;;
8159;SDS011;27404;52.398;9.646;2023-01-06T10:46:01;3.20;;;1.33;;
8159;SDS011;27404;52.398;9.646;2023-01-06T10:48:27;2.83;;;1.50;;
8159;SDS011;27404;52.398;9.646;2023-01-06T10:50:55;3.00;;;1.70;;
8159;SDS011;27404;52.398;9.646;2023-01-06T10:53:20;2.93;;;1.40;;
8159;SDS011;27404;52.398;9.646;2023-01-06T10:55:56;2.67;;;1.30;;
8159;SDS011;27404;52.398;9.646;2023-01-06T10:58:24;2.87;;;1.53;;
8159;SDS011;27404;52.398;9.646;2023-01-06T11:01:15;2.93;;;1.60;;
8159;SDS011;27404;52.398;9.646;2023-01-06T11:03:47;3.93;;;1.77;;
8159;SDS011;27404;52.398;9.646;2023-01-06T11:06:44;2.27;;;2.07;;
8159;SDS011;27404;52.398;9.646;2023-01-06T11:09:22;1.73;;;1.60;;
8159;SDS011;27404;52.398;9.646;2023-01-06T11:11:54;2.97;;;2.10;;
8159;SDS011;27404;52.398;9.646;2023-01-06T11:14:24;2.20;;;2.00;;
8159;SDS011;27404;52.398;9.646;2023-01-06T11:16:55;2.87;;;2.10;;
8159;SDS011;27404;52.398;9.646;2023-01-06T11:19:30;2.43;;;2.23;;
8159;SDS011;27404;52.398;9.646;2023-01-06T11:21:57;3.53;;;2.43;;
8159;SDS011;27404;52.398;9.646;2023-01-06T11:24:23;2.40;;;2.20;;
8159;SDS011;27404;52.398;9.646;2023-01-06T11:26:54;2.50;;;2.30;;
8159;SDS011;27404;52.398;9.646;2023-01-06T11:29:29;2.83;;;2.43;;
8159;SDS011;27404;52.398;9.646;2023-01-06T11:31:58;3.90;;;2.83;;
8159;SDS011;27404;52.398;9.646;2023-01-06T11:34:26;2.87;;;2.47;;
8159;SDS011;27404;52.398;9.646;2023-01-06T11:36:55;2.87;;;2.20;;
8159;SDS011;27404;52.398;9.646;2023-01-06T11:41:52;2.50;;;2.10;;
8159;SDS011;27404;52.398;9.646;2023-01-06T11:44:32;3.37;;;2.53;;
8159;SDS011;27404;52.398;9.646;2023-01-06T11:47:07;4.90;;;2.37;;
8159;SDS011;27404;52.398;9.646;2023-01-06T11:49:39;2.23;;;2.03;;
8159;SDS011;27404;52.398;9.646;2023-01-06T11:54:41;3.43;;;2.03;;
8159;SDS011;27404;52.398;9.646;2023-01-06T11:59:48;2.77;;;2.00;;
8159;SDS011;27404;52.398;9.646;2023-01-06T12:05:09;3.27;;;2.00;;
8159;SDS011;27404;52.398;9.646;2023-01-06T12:07:50;2.27;;;1.80;;
8159;SDS011;27404;52.398;9.646;2023-01-06T12:10:23;3.37;;;2.23;;
8159;SDS011;27404;52.398;9.646;2023-01-06T12:12:59;2.63;;;1.93;;
8159;SDS011;27404;52.398;9.646;2023-01-06T12:15:25;2.77;;;1.93;;
8159;SDS011;27404;52.398;9.646;2023-01-06T12:17:54;2.20;;;2.00;;
8159;SDS011;27404;52.398;9.646;2023-01-06T12:20:28;2.30;;;2.10;;
8159;SDS011;27404;52.398;9.646;2023-01-06T12:22:57;2.90;;;1.77;;
8159;SDS011;27404;52.398;9.646;2023-01-06T12:25:34;2.10;;;1.90;;
8159;SDS011;27404;52.398;9.646;2023-01-06T12:31:01;2.33;;;2.13;;
8159;SDS011;27404;52.398;9.646;2023-01-06T12:47:20;2.80;;;2.50;;
8159;SDS011;27404;52.398;9.646;2023-01-06T12:49:58;4.03;;;2.27;;
8159;SDS011;27404;52.398;9.646;2023-01-06T12:55:06;2.60;;;2.17;;
8159;SDS011;27404;52.398;9.646;2023-01-06T12:57:50;2.50;;;2.20;;
8159;SDS011;27404;52.398;9.646;2023-01-06T13:05:35;2.57;;;2.10;;
8159;SDS011;27404;52.398;9.646;2023-01-06T13:11:26;2.23;;;1.70;;
8159;SDS011;27404;52.398;9.646;2023-01-06T13:22:00;2.93;;;1.30;;
8159;SDS011;27404;52.398;9.646;2023-01-06T13:33:00;1.87;;;0.83;;
8159;SDS011;27404;52.398;9.646;2023-01-06T13:38:13;3.13;;;1.00;;
8159;SDS011;27404;52.398;9.646;2023-01-06T13:41:07;2.30;;;0.87;;
8159;SDS011;27404;52.398;9.646;2023-01-06T13:43:38;1.30;;;0.80;;
8159;SDS011;27404;52.398;9.646;2023-01-06T13:46:06;2.90;;;1.50;;
8159;SDS011;27404;52.398;9.646;2023-01-06T13:48:40;4.53;;;1.17;;
8159;SDS011;27404;52.398;9.646;2023-01-06T13:51:10;2.13;;;0.77;;
8159;SDS011;27404;52.398;9.646;2023-01-06T13:53:41;3.60;;;1.10;;
8159;SDS011;27404;52.398;9.646;2023-01-06T14:03:42;2.83;;;1.00;;
8159;SDS011;27404;52.398;9.646;2023-01-06T14:06:10;2.43;;;1.00;;
8159;SDS011;27404;52.398;9.646;2023-01-06T14:08:48;3.63;;;0.97;;
8159;SDS011;27404;52.398;9.646;2023-01-06T14:13:48;2.77;;;1.00;;
8159;SDS011;27404;52.398;9.646;2023-01-06T14:16:16;2.60;;;1.17;;
8159;SDS011;27404;52.398;9.646;2023-01-06T14:18:43;2.37;;;1.00;;
8159;SDS011;27404;52.398;9.646;2023-01-06T14:23:38;3.43;;;1.00;;
8159;SDS011;27404;52.398;9.646;2023-01-06T14:26:15;1.40;;;0.70;;
8159;SDS011;27404;52.398;9.646;2023-01-06T14:28:40;5.77;;;0.90;;
8159;SDS011;27404;52.398;9.646;2023-01-06T14:34:11;5.07;;;0.90;;
8159;SDS011;27404;52.398;9.646;2023-01-06T14:36:37;2.17;;;1.00;;
8159;SDS011;27404;52.398;9.646;2023-01-06T14:39:04;1.93;;;1.07;;
8159;SDS011;27404;52.398;9.646;2023-01-06T14:41:44;2.10;;;1.10;;
8159;SDS011;27404;52.398;9.646;2023-01-06T14:44:17;3.87;;;1.20;;
8159;SDS011;27404;52.398;9.646;2023-01-06T14:46:50;6.40;;;1.30;;
8159;SDS011;27404;52.398;9.646;2023-01-06T14:52:28;3.37;;;1.10;;
8159;SDS011;27404;52.398;9.646;2023-01-06T14:55:00;4.73;;;1.60;;
8159;SDS011;27404;52.398;9.646;2023-01-06T14:57:33;2.30;;;1.20;;
8159;SDS011;27404;52.398;9.646;2023-01-06T15:02:34;2.43;;;1.07;;
8159;SDS011;27404;52.398;9.646;2023-01-06T15:05:01;5.90;;;1.50;;
8159;SDS011;27404;52.398;9.646;2023-01-06T15:07:27;2.23;;;1.00;;
8159;SDS011;27404;52.398;9.646;2023-01-06T15:09:52;3.23;;;1.30;;
8159;SDS011;27404;52.398;9.646;2023-01-06T15:12:41;3.73;;;2.03;;
8159;SDS011;27404;52.398;9.646;2023-01-06T15:17:54;3.87;;;1.60;;
8159;SDS011;27404;52.398;9.646;2023-01-06T15:20:26;4.10;;;1.63;;
8159;SDS011;27404;52.398;9.646;2023-01-06T15:23:04;1.77;;;1.20;;
8159;SDS011;27404;52.398;9.646;2023-01-06T15:25:30;2.70;;;1.33;;
8159;SDS011;27404;52.398;9.646;2023-01-06T15:27:59;3.93;;;1.40;;
8159;SDS011;27404;52.398;9.646;2023-01-06T15:30:25;2.60;;;1.23;;
8159;SDS011;27404;52.398;9.646;2023-01-06T15:32:53;4.70;;;1.43;;
8159;SDS011;27404;52.398;9.646;2023-01-06T15:35:21;4.63;;;1.60;;
8159;SDS011;27404;52.398;9.646;2023-01-06T15:38:05;3.27;;;1.47;;
8159;SDS011;27404;52.398;9.646;2023-01-06T15:40:49;4.30;;;1.83;;
8159;SDS011;27404;52.398;9.646;2023-01-06T15:43:16;2.10;;;1.40;;
8159;SDS011;27404;52.398;9.646;2023-01-06T15:45:53;3.10;;;1.60;;
8159;SDS011;27404;52.398;9.646;2023-01-06T15:48:26;2.73;;;1.40;;
8159;SDS011;27404;52.398;9.646;2023-01-06T15:50:55;4.07;;;1.80;;
8159;SDS011;27404;52.398;9.646;2023-01-06T15:53:21;3.93;;;1.83;;
8159;SDS011;27404;52.398;9.646;2023-01-06T15:55:52;2.93;;;1.80;;
8159;SDS011;27404;52.398;9.646;2023-01-06T15:58:30;4.60;;;2.10;;
8159;SDS011;27404;52.398;9.646;2023-01-06T16:01:21;3.27;;;1.97;;
8159;SDS011;27404;52.398;9.646;2023-01-06T16:03:48;5.03;;;1.73;;
8159;SDS011;27404;52.398;9.646;2023-01-06T16:06:14;4.33;;;2.07;;
8159;SDS011;27404;52.398;9.646;2023-01-06T16:08:48;4.40;;;2.40;;
8159;SDS011;27404;52.398;9.646;2023-01-06T16:13:39;3.20;;;2.10;;
8159;SDS011;27404;52.398;9.646;2023-01-06T16:18:40;4.90;;;2.17;;
8159;SDS011;27404;52.398;9.646;2023-01-06T16:21:12;3.83;;;2.13;;
8159;SDS011;27404;52.398;9.646;2023-01-06T16:23:41;5.27;;;2.20;;
8159;SDS011;27404;52.398;9.646;2023-01-06T16:26:14;7.10;;;2.30;;
8159;SDS011;27404;52.398;9.646;2023-01-06T16:28:49;4.00;;;2.20;;
8159;SDS011;27404;52.398;9.646;2023-01-06T16:36:40;5.27;;;3.10;;
8159;SDS011;27404;52.398;9.646;2023-01-06T16:39:06;11.70;;;5.13;;
8159;SDS011;27404;52.398;9.646;2023-01-06T16:41:31;8.57;;;3.90;;
8159;SDS011;27404;52.398;9.646;2023-01-06T16:43:56;9.33;;;4.03;;
8159;SDS011;27404;52.398;9.646;2023-01-06T16:46:22;11.93;;;5.10;;
8159;SDS011;27404;52.398;9.646;2023-01-06T16:48:51;7.50;;;4.67;;
8159;SDS011;27404;52.398;9.646;2023-01-06T16:51:18;8.13;;;4.73;;
8159;SDS011;27404;52.398;9.646;2023-01-06T16:53:45;8.50;;;4.60;;
8159;SDS011;27404;52.398;9.646;2023-01-06T16:56:15;8.40;;;4.17;;
8159;SDS011;27404;52.398;9.646;2023-01-06T16:58:43;9.57;;;4.50;;
8159;SDS011;27404;52.398;9.646;2023-01-06T17:01:13;7.53;;;4.23;;
8159;SDS011;27404;52.398;9.646;2023-01-06T17:03:49;16.80;;;7.53;;
8159;SDS011;27404;52.398;9.646;2023-01-06T17:06:18;9.33;;;6.43;;
8159;SDS011;27404;52.398;9.646;2023-01-06T17:08:45;7.87;;;5.43;;
8159;SDS011;27404;52.398;9.646;2023-01-06T17:11:18;16.63;;;9.10;;
8159;SDS011;27404;52.398;9.646;2023-01-06T17:13:52;12.13;;;6.43;;
8159;SDS011;27404;52.398;9.646;2023-01-06T17:16:23;11.77;;;6.60;;
8159;SDS011;27404;52.398;9.646;2023-01-06T17:19:05;13.70;;;8.10;;
8159;SDS011;27404;52.398;9.646;2023-01-06T17:21:39;9.93;;;5.97;;
8159;SDS011;27404;52.398;9.646;2023-01-06T17:26:33;12.23;;;6.33;;
8159;SDS011;27404;52.398;9.646;2023-01-06T17:28:59;12.47;;;6.67;;
8159;SDS011;27404;52.398;9.646;2023-01-06T17:31:33;14.83;;;7.93;;
8159;SDS011;27404;52.398;9.646;2023-01-06T17:34:13;13.53;;;7.50;;
8159;SDS011;27404;52.398;9.646;2023-01-06T17:36:46;17.37;;;9.73;;